createdAt,value
2016-12-31T00:00:18.528Z,0
2016-12-31T00:01:18.501Z,0
2016-12-31T00:02:18.830Z,0
2016-12-31T00:03:18.784Z,0
2016-12-31T00:04:18.744Z,0
2016-12-31T00:05:18.699Z,0
2016-12-31T00:06:18.664Z,0
2016-12-31T00:07:17.847Z,0
2016-12-31T00:08:18.574Z,0
2016-12-31T00:09:18.152Z,0
2016-12-31T00:10:18.489Z,0
2016-12-31T00:11:18.061Z,0
2016-12-31T00:12:18.025Z,0
2016-12-31T00:13:18.362Z,0
2016-12-31T00:14:18.323Z,0
2016-12-31T00:15:17.897Z,0
2016-12-31T00:16:17.850Z,0
2016-12-31T00:17:17.817Z,0
2016-12-31T00:18:18.151Z,0
2016-12-31T00:19:18.105Z,0
2016-12-31T00:20:18.072Z,0
2016-12-31T00:21:18.021Z,0
2016-12-31T00:22:17.609Z,0
2016-12-31T00:23:17.939Z,0
2016-12-31T00:24:17.128Z,0
2016-12-31T00:25:17.467Z,0
2016-12-31T00:26:17.813Z,0
2016-12-31T00:27:17.381Z,0
2016-12-31T00:28:17.337Z,0
2016-12-31T00:29:16.560Z,0
2016-12-31T00:30:17.250Z,0
2016-12-31T00:31:16.826Z,0
2016-12-31T00:32:17.553Z,0
2016-12-31T00:33:16.743Z,0
2016-12-31T00:34:17.466Z,0
2016-12-31T00:35:17.424Z,0
2016-12-31T00:36:17.382Z,0
2016-12-31T00:37:17.344Z,0
2016-12-31T00:38:17.297Z,0
2016-12-31T00:39:17.251Z,0
2016-12-31T00:40:16.441Z,0
2016-12-31T00:41:16.432Z,0
2016-12-31T00:42:16.355Z,0
2016-12-31T00:43:17.086Z,0
2016-12-31T00:44:17.061Z,0
2016-12-31T00:45:16.637Z,0
2016-12-31T00:46:16.958Z,0
2016-12-31T00:47:16.915Z,0
2016-12-31T00:48:16.870Z,0
2016-12-31T00:49:16.445Z,0
2016-12-31T00:50:16.397Z,0
2016-12-31T00:51:16.362Z,0
2016-12-31T00:52:16.702Z,0
2016-12-31T00:53:16.655Z,0
2016-12-31T00:54:16.625Z,0
2016-12-31T00:55:16.573Z,0
2016-12-31T00:56:16.148Z,0
2016-12-31T00:57:16.493Z,0
2016-12-31T00:58:16.448Z,0
2016-12-31T00:59:16.017Z,0
2016-12-31T01:00:16.364Z,0
2016-12-31T01:01:15.931Z,0
2016-12-31T01:02:16.286Z,0
2016-12-31T01:03:16.233Z,0
2016-12-31T01:04:16.199Z,0
2016-12-31T01:05:16.146Z,0
2016-12-31T01:06:16.111Z,0
2016-12-31T01:07:15.685Z,0
2016-12-31T01:08:16.024Z,0
2016-12-31T01:09:15.594Z,0
2016-12-31T01:10:15.556Z,0
2016-12-31T01:11:15.901Z,0
2016-12-31T01:12:15.470Z,0
2016-12-31T01:13:15.456Z,0
2016-12-31T01:14:15.783Z,0
2016-12-31T01:15:15.341Z,0
2016-12-31T01:16:15.680Z,0
2016-12-31T01:17:15.638Z,0
2016-12-31T01:18:15.595Z,0
2016-12-31T01:19:15.184Z,0
2016-12-31T01:20:15.125Z,0
2016-12-31T01:21:15.096Z,0
2016-12-31T01:22:15.040Z,0
2016-12-31T01:23:14.994Z,0
2016-12-31T01:24:14.981Z,0
2016-12-31T01:25:14.528Z,0
2016-12-31T01:26:15.253Z,0
2016-12-31T01:27:14.831Z,0
2016-12-31T01:28:15.172Z,0
2016-12-31T01:29:14.747Z,0
2016-12-31T01:30:14.711Z,0
2016-12-31T01:31:15.040Z,0
2016-12-31T01:32:14.612Z,0
2016-12-31T01:33:14.571Z,0
2016-12-31T01:34:14.916Z,0
2016-12-31T01:35:14.491Z,0
2016-12-31T01:36:14.829Z,0
2016-12-31T01:37:14.787Z,0
2016-12-31T01:38:14.766Z,0
2016-12-31T01:39:14.704Z,0
2016-12-31T01:40:14.666Z,0
2016-12-31T01:41:14.611Z,0
2016-12-31T01:42:14.186Z,0
2016-12-31T01:43:14.149Z,0
2016-12-31T01:44:14.491Z,0
2016-12-31T01:45:14.060Z,0
2016-12-31T01:46:14.442Z,0
2016-12-31T01:47:14.382Z,0
2016-12-31T01:48:14.318Z,0
2016-12-31T01:49:14.271Z,0
2016-12-31T01:50:14.230Z,0
2016-12-31T01:51:14.186Z,0
2016-12-31T01:52:14.148Z,0
2016-12-31T01:53:13.718Z,0
2016-12-31T01:54:13.671Z,0
2016-12-31T01:55:14.020Z,0
2016-12-31T01:56:12.820Z,0
2016-12-31T01:57:13.165Z,0
2016-12-31T01:58:13.892Z,0
2016-12-31T01:59:13.860Z,0
2016-12-31T02:00:12.645Z,0
2016-12-31T02:01:13.772Z,0
2016-12-31T02:02:13.335Z,0
2016-12-31T02:03:13.677Z,0
2016-12-31T02:04:13.633Z,0
2016-12-31T02:05:13.220Z,0
2016-12-31T02:06:13.165Z,0
2016-12-31T02:07:12.735Z,0
2016-12-31T02:08:13.076Z,0
2016-12-31T02:09:12.650Z,0
2016-12-31T02:10:13.379Z,0
2016-12-31T02:11:13.337Z,0
2016-12-31T02:12:13.295Z,0
2016-12-31T02:13:13.254Z,0
2016-12-31T02:14:13.203Z,0
2016-12-31T02:15:12.775Z,0
2016-12-31T02:16:12.739Z,0
2016-12-31T02:17:12.698Z,0
2016-12-31T02:18:12.649Z,0
2016-12-31T02:19:11.861Z,0
2016-12-31T02:20:12.569Z,0
2016-12-31T02:21:12.911Z,0
2016-12-31T02:22:12.873Z,0
2016-12-31T02:23:12.820Z,0
2016-12-31T02:24:12.389Z,0
2016-12-31T02:25:12.374Z,0
2016-12-31T02:26:12.305Z,0
2016-12-31T02:27:12.655Z,0
2016-12-31T02:28:12.225Z,0
2016-12-31T02:29:11.405Z,0
2016-12-31T02:30:12.523Z,0
2016-12-31T02:31:12.093Z,0
2016-12-31T02:32:12.049Z,0
2016-12-31T02:33:12.393Z,0
2016-12-31T02:34:11.988Z,0
2016-12-31T02:35:11.927Z,0
2016-12-31T02:36:12.260Z,0
2016-12-31T02:37:12.223Z,0
2016-12-31T02:38:11.807Z,0
2016-12-31T02:39:11.364Z,0
2016-12-31T02:40:12.094Z,0
2016-12-31T02:41:11.670Z,0
2016-12-31T02:42:11.627Z,0
2016-12-31T02:43:11.581Z,0
2016-12-31T02:44:11.540Z,0
2016-12-31T02:45:11.497Z,0
2016-12-31T02:46:11.090Z,0
2016-12-31T02:47:11.417Z,0
2016-12-31T02:48:11.753Z,0
2016-12-31T02:49:11.713Z,0
2016-12-31T02:50:11.284Z,0
2016-12-31T02:51:11.650Z,0
2016-12-31T02:52:11.214Z,0
2016-12-31T02:53:11.156Z,0
2016-12-31T02:54:11.109Z,0
2016-12-31T02:55:11.454Z,0
2016-12-31T02:56:11.026Z,0
2016-12-31T02:57:11.365Z,0
2016-12-31T02:58:11.326Z,0
2016-12-31T02:59:11.292Z,0
2016-12-31T03:00:10.851Z,0
2016-12-31T03:01:11.201Z,0
2016-12-31T03:02:11.154Z,0
2016-12-31T03:03:11.103Z,0
2016-12-31T03:04:11.070Z,0
2016-12-31T03:05:10.257Z,0
2016-12-31T03:06:10.986Z,0
2016-12-31T03:07:10.935Z,0
2016-12-31T03:08:10.899Z,0
2016-12-31T03:09:10.463Z,0
2016-12-31T03:10:10.444Z,0
2016-12-31T03:11:10.763Z,0
2016-12-31T03:12:10.343Z,0
2016-12-31T03:13:10.678Z,0
2016-12-31T03:14:09.873Z,0
2016-12-31T03:15:10.618Z,0
2016-12-31T03:16:10.165Z,0
2016-12-31T03:17:10.133Z,0
2016-12-31T03:18:09.306Z,0
2016-12-31T03:19:10.038Z,0
2016-12-31T03:20:10.396Z,0
2016-12-31T03:21:10.341Z,0
2016-12-31T03:22:09.922Z,0
2016-12-31T03:23:09.863Z,0
2016-12-31T03:24:10.206Z,0
2016-12-31T03:25:10.172Z,0
2016-12-31T03:26:09.735Z,0
2016-12-31T03:27:10.079Z,0
2016-12-31T03:28:09.645Z,0
2016-12-31T03:29:10.002Z,0
2016-12-31T03:30:09.182Z,0
2016-12-31T03:31:09.135Z,0
2016-12-31T03:32:09.484Z,0
2016-12-31T03:33:09.819Z,0
2016-12-31T03:34:09.778Z,0
2016-12-31T03:35:09.380Z,0
2016-12-31T03:36:09.704Z,0
2016-12-31T03:37:09.652Z,0
2016-12-31T03:38:09.220Z,0
2016-12-31T03:39:09.562Z,0
2016-12-31T03:40:09.524Z,0
2016-12-31T03:41:09.481Z,0
2016-12-31T03:42:09.054Z,0
2016-12-31T03:43:09.005Z,0
2016-12-31T03:44:09.346Z,0
2016-12-31T03:45:08.925Z,0
2016-12-31T03:46:08.881Z,0
2016-12-31T03:47:08.837Z,0
2016-12-31T03:48:09.181Z,0
2016-12-31T03:49:09.135Z,0
2016-12-31T03:50:08.710Z,0
2016-12-31T03:51:08.283Z,0
2016-12-31T03:52:08.622Z,0
2016-12-31T03:53:08.194Z,0
2016-12-31T03:54:08.153Z,0
2016-12-31T03:55:08.877Z,0
2016-12-31T03:56:08.449Z,0
2016-12-31T03:57:08.022Z,0
2016-12-31T03:58:08.777Z,0
2016-12-31T03:59:07.938Z,0
2016-12-31T04:00:07.898Z,0
2016-12-31T04:01:07.852Z,0
2016-12-31T04:02:08.573Z,0
2016-12-31T04:03:08.155Z,0
2016-12-31T04:04:08.493Z,0
2016-12-31T04:05:08.099Z,0
2016-12-31T04:06:08.417Z,0
2016-12-31T04:07:07.980Z,0
2016-12-31T04:08:07.936Z,0
2016-12-31T04:09:08.281Z,0
2016-12-31T04:10:07.851Z,0
2016-12-31T04:11:07.805Z,0
2016-12-31T04:12:08.151Z,0
2016-12-31T04:13:07.336Z,0
2016-12-31T04:14:08.064Z,0
2016-12-31T04:15:07.255Z,0
2016-12-31T04:16:07.598Z,0
2016-12-31T04:17:07.560Z,0
2016-12-31T04:18:07.512Z,0
2016-12-31T04:19:07.858Z,0
2016-12-31T04:20:07.433Z,0
2016-12-31T04:21:07.766Z,0
2016-12-31T04:22:06.953Z,0
2016-12-31T04:23:06.908Z,0
2016-12-31T04:24:07.637Z,0
2016-12-31T04:25:07.588Z,0
2016-12-31T04:26:07.563Z,0
2016-12-31T04:27:07.120Z,0
2016-12-31T04:28:07.469Z,0
2016-12-31T04:29:07.042Z,0
2016-12-31T04:30:06.993Z,0
2016-12-31T04:31:06.953Z,0
2016-12-31T04:32:07.292Z,0
2016-12-31T04:33:07.251Z,0
2016-12-31T04:34:07.208Z,0
2016-12-31T04:35:07.166Z,0
2016-12-31T04:36:07.124Z,0
2016-12-31T04:37:07.075Z,0
2016-12-31T04:38:06.647Z,0
2016-12-31T04:39:06.631Z,0
2016-12-31T04:40:06.956Z,0
2016-12-31T04:41:06.143Z,0
2016-12-31T04:42:06.861Z,0
2016-12-31T04:43:06.447Z,0
2016-12-31T04:44:06.778Z,0
2016-12-31T04:45:06.729Z,0
2016-12-31T04:46:06.694Z,0
2016-12-31T04:47:06.649Z,0
2016-12-31T04:48:06.608Z,0
2016-12-31T04:49:06.209Z,0
2016-12-31T04:50:06.518Z,0
2016-12-31T04:51:06.476Z,0
2016-12-31T04:52:06.430Z,0
2016-12-31T04:53:06.011Z,0
2016-12-31T04:54:06.350Z,0
2016-12-31T04:55:05.923Z,0
2016-12-31T04:56:06.259Z,0
2016-12-31T04:57:05.862Z,0
2016-12-31T04:58:06.175Z,0
2016-12-31T04:59:06.140Z,0
2016-12-31T05:00:05.707Z,0
2016-12-31T05:01:05.665Z,0
2016-12-31T05:02:06.006Z,0
2016-12-31T05:03:05.215Z,0
2016-12-31T05:04:05.146Z,0
2016-12-31T05:05:05.875Z,0
2016-12-31T05:06:05.833Z,0
2016-12-31T05:07:05.015Z,0
2016-12-31T05:08:05.367Z,0
2016-12-31T05:09:05.707Z,0
2016-12-31T05:10:05.275Z,0
2016-12-31T05:11:05.619Z,0
2016-12-31T05:12:05.190Z,0
2016-12-31T05:13:05.529Z,0
2016-12-31T05:14:05.107Z,0
2016-12-31T05:15:04.675Z,0
2016-12-31T05:16:05.401Z,0
2016-12-31T05:17:04.972Z,0
2016-12-31T05:18:04.549Z,0
2016-12-31T05:19:04.891Z,0
2016-12-31T05:20:04.843Z,0
2016-12-31T05:21:04.806Z,0
2016-12-31T05:22:04.766Z,0
2016-12-31T05:23:04.718Z,0
2016-12-31T05:24:05.061Z,0
2016-12-31T05:25:05.019Z,0
2016-12-31T05:26:04.970Z,0
2016-12-31T05:27:04.548Z,0
2016-12-31T05:28:04.891Z,0
2016-12-31T05:29:04.460Z,0
2016-12-31T05:30:04.418Z,0
2016-12-31T05:31:03.991Z,0
2016-12-31T05:32:04.332Z,0
2016-12-31T05:33:04.674Z,0
2016-12-31T05:34:04.629Z,0
2016-12-31T05:35:04.588Z,0
2016-12-31T05:36:03.777Z,0
2016-12-31T05:37:04.508Z,0
2016-12-31T05:38:04.081Z,0
2016-12-31T05:39:04.039Z,0
2016-12-31T05:40:03.988Z,0
2016-12-31T05:41:03.947Z,0
2016-12-31T05:42:03.523Z,0
2016-12-31T05:43:03.857Z,0
2016-12-31T05:44:03.816Z,0
2016-12-31T05:45:04.160Z,0
2016-12-31T05:46:03.350Z,0
2016-12-31T05:47:03.689Z,0
2016-12-31T05:48:03.646Z,0
2016-12-31T05:49:03.615Z,0
2016-12-31T05:50:03.953Z,0
2016-12-31T05:51:03.513Z,0
2016-12-31T05:52:03.858Z,0
2016-12-31T05:53:03.424Z,0
2016-12-31T05:54:03.384Z,0
2016-12-31T05:55:03.341Z,0
2016-12-31T05:56:03.692Z,0
2016-12-31T05:57:03.256Z,0
2016-12-31T05:58:03.609Z,0
2016-12-31T05:59:03.178Z,0
2016-12-31T06:00:03.141Z,0
2016-12-31T06:01:03.474Z,0
2016-12-31T06:02:03.057Z,0
2016-12-31T06:03:02.614Z,0
2016-12-31T06:04:03.339Z,0
2016-12-31T06:05:02.920Z,0
2016-12-31T06:06:03.251Z,0
2016-12-31T06:07:03.212Z,0
2016-12-31T06:08:02.781Z,0
2016-12-31T06:09:02.745Z,0
2016-12-31T06:10:03.088Z,0
2016-12-31T06:11:03.037Z,0
2016-12-31T06:12:02.224Z,0
2016-12-31T06:13:02.955Z,0
2016-12-31T06:14:02.909Z,0
2016-12-31T06:15:02.097Z,0
2016-12-31T06:16:02.466Z,0
2016-12-31T06:17:02.781Z,0
2016-12-31T06:18:02.742Z,0
2016-12-31T06:19:02.696Z,0
2016-12-31T06:20:02.651Z,0
2016-12-31T06:21:01.845Z,0
2016-12-31T06:22:02.570Z,0
2016-12-31T06:23:01.754Z,0
2016-12-31T06:24:02.099Z,0
2016-12-31T06:25:02.051Z,0
2016-12-31T06:26:02.422Z,0
2016-12-31T06:27:01.964Z,0
2016-12-31T06:28:02.308Z,0
2016-12-31T06:29:01.883Z,0
2016-12-31T06:30:01.848Z,0
2016-12-31T06:31:02.178Z,0
2016-12-31T06:32:01.748Z,0
2016-12-31T06:33:02.094Z,0
2016-12-31T06:34:01.668Z,0
2016-12-31T06:35:01.622Z,0
2016-12-31T06:36:01.992Z,0
2016-12-31T06:37:01.923Z,0
2016-12-31T06:38:01.495Z,0
2016-12-31T06:39:01.455Z,0
2016-12-31T06:40:00.639Z,0
2016-12-31T06:41:01.752Z,0
2016-12-31T06:42:00.934Z,0
2016-12-31T06:43:01.278Z,4
2016-12-31T06:44:00.850Z,4
2016-12-31T06:45:01.588Z,0
2016-12-31T06:46:01.148Z,4
2016-12-31T06:47:01.494Z,4
2016-12-31T06:48:01.451Z,4
2016-12-31T06:49:01.027Z,4
2016-12-31T06:50:01.364Z,8
2016-12-31T06:51:00.164Z,4
2016-12-31T06:52:00.900Z,8
2016-12-31T06:53:01.237Z,8
2016-12-31T06:54:00.838Z,12
2016-12-31T06:55:00.373Z,12
2016-12-31T06:56:01.110Z,12
2016-12-31T06:57:00.295Z,16
2016-12-31T06:58:01.019Z,16
2016-12-31T06:59:00.983Z,20
2016-12-31T07:00:00.549Z,20
2016-12-31T07:01:00.889Z,24
2016-12-31T07:02:00.850Z,28
2016-12-31T07:03:00.051Z,28
2016-12-31T07:04:00.769Z,36
2016-12-31T07:05:00.336Z,36
2016-12-31T07:06:00.290Z,44
2016-12-31T07:07:00.657Z,44
2016-12-31T07:08:00.597Z,48
2016-12-31T07:09:00.160Z,52
2016-12-31T07:10:00.125Z,60
2016-12-31T07:11:00.491Z,60
2016-12-31T07:12:00.431Z,68
2016-12-31T07:12:59.991Z,72
2016-12-31T07:13:59.945Z,80
2016-12-31T07:14:59.905Z,88
2016-12-31T07:16:00.252Z,92
2016-12-31T07:16:59.822Z,100
2016-12-31T07:17:59.392Z,108
2016-12-31T07:18:59.747Z,120
2016-12-31T07:19:59.307Z,128
2016-12-31T07:21:00.035Z,144
2016-12-31T07:21:59.606Z,152
2016-12-31T07:22:59.950Z,164
2016-12-31T07:23:59.908Z,172
2016-12-31T07:24:59.092Z,168
2016-12-31T07:25:59.813Z,168
2016-12-31T07:26:59.774Z,176
2016-12-31T07:27:59.726Z,188
2016-12-31T07:28:59.306Z,196
2016-12-31T07:29:59.259Z,204
2016-12-31T07:30:59.606Z,212
2016-12-31T07:31:59.568Z,228
2016-12-31T07:32:59.515Z,244
2016-12-31T07:33:59.093Z,256
2016-12-31T07:34:59.045Z,268
2016-12-31T07:35:59.008Z,276
2016-12-31T07:36:59.345Z,284
2016-12-31T07:37:58.919Z,296
2016-12-31T07:38:58.491Z,308
2016-12-31T07:39:59.214Z,320
2016-12-31T07:40:59.179Z,332
2016-12-31T07:41:58.751Z,340
2016-12-31T07:42:58.702Z,348
2016-12-31T07:43:58.659Z,360
2016-12-31T07:44:59.003Z,364
2016-12-31T07:45:58.963Z,380
2016-12-31T07:46:58.533Z,408
2016-12-31T07:47:58.105Z,436
2016-12-31T07:48:58.453Z,464
2016-12-31T07:49:58.407Z,492
2016-12-31T07:50:58.748Z,512
2016-12-31T07:51:58.702Z,520
2016-12-31T07:52:58.664Z,520
2016-12-31T07:53:57.844Z,528
2016-12-31T07:54:58.580Z,540
2016-12-31T07:55:58.531Z,556
2016-12-31T07:56:58.105Z,600
2016-12-31T07:57:57.673Z,632
2016-12-31T07:58:58.408Z,648
2016-12-31T07:59:57.593Z,644
2016-12-31T08:00:58.338Z,644
2016-12-31T08:01:58.276Z,652
2016-12-31T08:02:57.847Z,676
2016-12-31T08:03:57.803Z,704
2016-12-31T08:04:57.762Z,732
2016-12-31T08:05:58.105Z,744
2016-12-31T08:06:58.060Z,760
2016-12-31T08:07:58.075Z,764
2016-12-31T08:08:57.984Z,748
2016-12-31T08:09:57.547Z,744
2016-12-31T08:10:57.884Z,764
2016-12-31T08:11:57.846Z,796
2016-12-31T08:12:57.836Z,820
2016-12-31T08:13:57.761Z,828
2016-12-31T08:14:57.725Z,832
2016-12-31T08:15:57.673Z,860
2016-12-31T08:16:56.857Z,892
2016-12-31T08:17:57.590Z,924
2016-12-31T08:18:57.572Z,956
2016-12-31T08:19:57.508Z,976
2016-12-31T08:20:57.072Z,1012
2016-12-31T08:21:57.418Z,1064
2016-12-31T08:22:57.369Z,1084
2016-12-31T08:23:56.943Z,1092
2016-12-31T08:24:56.894Z,1104
2016-12-31T08:25:56.864Z,1108
2016-12-31T08:26:56.431Z,1124
2016-12-31T08:27:57.156Z,1160
2016-12-31T08:28:57.123Z,1200
2016-12-31T08:29:56.687Z,1224
2016-12-31T08:30:57.024Z,1228
2016-12-31T08:31:56.982Z,1240
2016-12-31T08:32:56.937Z,1256
2016-12-31T08:33:56.131Z,1256
2016-12-31T08:34:56.478Z,1236
2016-12-31T08:35:56.814Z,1232
2016-12-31T08:36:56.768Z,1236
2016-12-31T08:37:56.351Z,1244
2016-12-31T08:38:56.682Z,1264
2016-12-31T08:39:56.256Z,1304
2016-12-31T08:40:56.599Z,1348
2016-12-31T08:41:56.548Z,1404
2016-12-31T08:42:55.746Z,1456
2016-12-31T08:43:56.092Z,1504
2016-12-31T08:44:56.424Z,1564
2016-12-31T08:45:56.381Z,1612
2016-12-31T08:46:56.065Z,1672
2016-12-31T08:47:56.298Z,1736
2016-12-31T08:48:55.866Z,1744
2016-12-31T08:49:55.825Z,1748
2016-12-31T08:50:55.789Z,1772
2016-12-31T08:51:56.120Z,1772
2016-12-31T08:52:56.080Z,1776
2016-12-31T08:53:56.040Z,1788
2016-12-31T08:54:55.617Z,1780
2016-12-31T08:55:55.576Z,1776
2016-12-31T08:56:55.524Z,1776
2016-12-31T08:57:55.480Z,1792
2016-12-31T08:58:55.823Z,1820
2016-12-31T08:59:55.409Z,1852
2016-12-31T09:00:55.740Z,1876
2016-12-31T09:01:55.311Z,1864
2016-12-31T09:02:55.653Z,1848
2016-12-31T09:03:55.609Z,1824
2016-12-31T09:04:55.570Z,1808
2016-12-31T09:05:55.137Z,1812
2016-12-31T09:06:55.487Z,1812
2016-12-31T09:07:55.439Z,1800
2016-12-31T09:08:55.011Z,1800
2016-12-31T09:09:54.582Z,1804
2016-12-31T09:10:54.542Z,1832
2016-12-31T09:11:55.262Z,1868
2016-12-31T09:12:54.832Z,1884
2016-12-31T09:13:55.178Z,1904
2016-12-31T09:14:55.140Z,1944
2016-12-31T09:15:55.091Z,1988
2016-12-31T09:16:54.666Z,2000
2016-12-31T09:17:55.015Z,2044
2016-12-31T09:18:54.967Z,2116
2016-12-31T09:19:54.928Z,2200
2016-12-31T09:20:54.884Z,2300
2016-12-31T09:21:54.839Z,2392
2016-12-31T09:22:54.022Z,2444
2016-12-31T09:23:54.367Z,2456
2016-12-31T09:24:54.716Z,2428
2016-12-31T09:25:53.896Z,2420
2016-12-31T09:26:54.247Z,2432
2016-12-31T09:27:54.195Z,2452
2016-12-31T09:28:54.537Z,2464
2016-12-31T09:29:54.497Z,2480
2016-12-31T09:30:54.068Z,2464
2016-12-31T09:31:54.410Z,2452
2016-12-31T09:32:54.367Z,2460
2016-12-31T09:33:53.553Z,2472
2016-12-31T09:34:54.276Z,2480
2016-12-31T09:35:53.853Z,2476
2016-12-31T09:36:54.200Z,2500
2016-12-31T09:37:53.766Z,2548
2016-12-31T09:38:54.113Z,2564
2016-12-31T09:39:54.066Z,2568
2016-12-31T09:40:53.252Z,2576
2016-12-31T09:41:53.981Z,2584
2016-12-31T09:42:53.550Z,2612
2016-12-31T09:43:53.517Z,2632
2016-12-31T09:44:53.849Z,2624
2016-12-31T09:45:53.811Z,2596
2016-12-31T09:46:53.385Z,2588
2016-12-31T09:47:53.729Z,2612
2016-12-31T09:48:53.674Z,2652
2016-12-31T09:49:52.862Z,2680
2016-12-31T09:50:53.589Z,2708
2016-12-31T09:51:53.557Z,2716
2016-12-31T09:52:52.739Z,2700
2016-12-31T09:53:52.689Z,2652
2016-12-31T09:54:53.045Z,2672
2016-12-31T09:55:53.377Z,2708
2016-12-31T09:56:52.962Z,2736
2016-12-31T09:57:53.286Z,2748
2016-12-31T09:58:53.252Z,2784
2016-12-31T09:59:53.219Z,2836
2016-12-31T10:00:52.772Z,2896
2016-12-31T10:01:53.127Z,2956
2016-12-31T10:02:53.084Z,3024
2016-12-31T10:03:53.034Z,3068
2016-12-31T10:04:53.022Z,3100
2016-12-31T10:05:52.947Z,3136
2016-12-31T10:06:52.528Z,3168
2016-12-31T10:07:52.864Z,3196
2016-12-31T10:08:52.821Z,3212
2016-12-31T10:09:52.399Z,3260
2016-12-31T10:10:52.350Z,3284
2016-12-31T10:11:52.692Z,3256
2016-12-31T10:12:52.646Z,3208
2016-12-31T10:13:51.835Z,3136
2016-12-31T10:14:52.562Z,3080
2016-12-31T10:15:52.135Z,3012
2016-12-31T10:16:52.096Z,2996
2016-12-31T10:17:51.674Z,3016
2016-12-31T10:18:52.007Z,3044
2016-12-31T10:19:51.971Z,3096
2016-12-31T10:20:52.305Z,3140
2016-12-31T10:21:51.498Z,3144
2016-12-31T10:22:51.838Z,3120
2016-12-31T10:23:51.403Z,3088
2016-12-31T10:24:51.756Z,3064
2016-12-31T10:25:51.710Z,3056
2016-12-31T10:26:52.060Z,3068
2016-12-31T10:27:51.628Z,3120
2016-12-31T10:28:51.577Z,3180
2016-12-31T10:29:51.537Z,3196
2016-12-31T10:30:51.882Z,3248
2016-12-31T10:31:51.850Z,3320
2016-12-31T10:32:51.801Z,3360
2016-12-31T10:33:51.752Z,3392
2016-12-31T10:34:51.708Z,3416
2016-12-31T10:35:51.290Z,3464
2016-12-31T10:36:51.628Z,3508
2016-12-31T10:37:51.198Z,3580
2016-12-31T10:38:50.768Z,3664
2016-12-31T10:39:51.133Z,3752
2016-12-31T10:40:51.082Z,3852
2016-12-31T10:41:51.446Z,3868
2016-12-31T10:42:51.377Z,3856
2016-12-31T10:43:51.328Z,3888
2016-12-31T10:44:50.900Z,3932
2016-12-31T10:45:50.858Z,4020
2016-12-31T10:46:51.201Z,4152
2016-12-31T10:47:51.162Z,4268
2016-12-31T10:48:51.115Z,4368
2016-12-31T10:49:50.699Z,4400
2016-12-31T10:50:50.642Z,4396
2016-12-31T10:51:50.998Z,4360
2016-12-31T10:52:50.944Z,4348
2016-12-31T10:53:50.908Z,4348
2016-12-31T10:54:50.866Z,4412
2016-12-31T10:55:50.825Z,4448
2016-12-31T10:56:50.007Z,4432
2016-12-31T10:57:49.960Z,4396
2016-12-31T10:58:50.697Z,4368
2016-12-31T10:59:50.652Z,4364
2016-12-31T11:00:50.226Z,4268
2016-12-31T11:01:50.576Z,4100
2016-12-31T11:02:50.142Z,4072
2016-12-31T11:03:50.096Z,4008
2016-12-31T11:04:50.057Z,3804
2016-12-31T11:05:50.013Z,3716
2016-12-31T11:06:50.363Z,3848
2016-12-31T11:07:50.319Z,4000
2016-12-31T11:08:50.271Z,4124
2016-12-31T11:09:50.232Z,4220
2016-12-31T11:10:49.420Z,4328
2016-12-31T11:11:50.140Z,4428
2016-12-31T11:12:49.342Z,4652
2016-12-31T11:13:50.060Z,4936
2016-12-31T11:14:50.019Z,5196
2016-12-31T11:15:49.628Z,5284
2016-12-31T11:16:49.551Z,5096
2016-12-31T11:17:49.898Z,4784
2016-12-31T11:18:49.467Z,4540
2016-12-31T11:19:49.808Z,4324
2016-12-31T11:20:49.762Z,4156
2016-12-31T11:21:49.335Z,4056
2016-12-31T11:22:49.678Z,3984
2016-12-31T11:23:49.642Z,3952
2016-12-31T11:24:49.596Z,3928
2016-12-31T11:25:49.164Z,3840
2016-12-31T11:26:49.122Z,3768
2016-12-31T11:27:49.469Z,3724
2016-12-31T11:28:49.429Z,3636
2016-12-31T11:29:48.999Z,3580
2016-12-31T11:30:48.956Z,3496
2016-12-31T11:31:49.299Z,3408
2016-12-31T11:32:49.278Z,3364
2016-12-31T11:33:49.223Z,3336
2016-12-31T11:34:48.785Z,3324
2016-12-31T11:35:49.135Z,3320
2016-12-31T11:36:48.702Z,3284
2016-12-31T11:37:49.084Z,3280
2016-12-31T11:38:49.005Z,3308
2016-12-31T11:39:48.983Z,3252
2016-12-31T11:40:48.920Z,3220
2016-12-31T11:41:48.876Z,3192
2016-12-31T11:42:48.832Z,3208
2016-12-31T11:43:48.790Z,3252
2016-12-31T11:44:48.361Z,3240
2016-12-31T11:45:48.322Z,3272
2016-12-31T11:46:48.289Z,3384
2016-12-31T11:47:48.623Z,3484
2016-12-31T11:48:48.584Z,3516
2016-12-31T11:49:48.536Z,3512
2016-12-31T11:50:48.122Z,3476
2016-12-31T11:51:48.447Z,3488
2016-12-31T11:52:47.256Z,3584
2016-12-31T11:53:48.370Z,3680
2016-12-31T11:54:48.328Z,3732
2016-12-31T11:55:47.906Z,3784
2016-12-31T11:56:47.863Z,3788
2016-12-31T11:57:47.829Z,3732
2016-12-31T11:58:48.151Z,3676
2016-12-31T11:59:48.112Z,3644
2016-12-31T12:00:47.305Z,3576
2016-12-31T12:01:48.024Z,3516
2016-12-31T12:02:47.610Z,3528
2016-12-31T12:03:46.791Z,3512
2016-12-31T12:04:47.904Z,3508
2016-12-31T12:05:47.862Z,3472
2016-12-31T12:06:47.430Z,3432
2016-12-31T12:07:47.781Z,3460
2016-12-31T12:08:47.349Z,3488
2016-12-31T12:09:47.689Z,3456
2016-12-31T12:10:47.267Z,3428
2016-12-31T12:11:47.221Z,3472
2016-12-31T12:12:47.179Z,3580
2016-12-31T12:13:47.142Z,3660
2016-12-31T12:14:47.100Z,3700
2016-12-31T12:15:47.056Z,3700
2016-12-31T12:16:47.009Z,3648
2016-12-31T12:17:46.966Z,3588
2016-12-31T12:18:46.957Z,3552
2016-12-31T12:19:47.278Z,3568
2016-12-31T12:20:47.227Z,3564
2016-12-31T12:21:46.801Z,3620
2016-12-31T12:22:47.150Z,3684
2016-12-31T12:23:47.102Z,3660
2016-12-31T12:24:46.672Z,3716
2016-12-31T12:25:47.025Z,3716
2016-12-31T12:26:46.589Z,3652
2016-12-31T12:27:46.547Z,3652
2016-12-31T12:28:46.507Z,3688
2016-12-31T12:29:46.846Z,3740
2016-12-31T12:30:46.420Z,3768
2016-12-31T12:31:46.378Z,3728
2016-12-31T12:32:46.342Z,3684
2016-12-31T12:33:45.912Z,3744
2016-12-31T12:34:46.662Z,3768
2016-12-31T12:35:46.206Z,3640
2016-12-31T12:36:46.553Z,3556
2016-12-31T12:37:46.516Z,3540
2016-12-31T12:38:46.511Z,3564
2016-12-31T12:39:46.050Z,3528
2016-12-31T12:40:45.621Z,3368
2016-12-31T12:41:45.959Z,3256
2016-12-31T12:42:46.304Z,3220
2016-12-31T12:43:45.872Z,3216
2016-12-31T12:44:46.213Z,3128
2016-12-31T12:45:46.169Z,3124
2016-12-31T12:46:46.129Z,3076
2016-12-31T12:47:45.705Z,3000
2016-12-31T12:48:46.052Z,2964
2016-12-31T12:49:46.005Z,2892
2016-12-31T12:50:45.969Z,2932
2016-12-31T12:51:45.535Z,2988
2016-12-31T12:52:45.882Z,2976
2016-12-31T12:53:45.836Z,2952
2016-12-31T12:54:45.798Z,2972
2016-12-31T12:55:45.359Z,2968
2016-12-31T12:56:45.318Z,3004
2016-12-31T12:57:45.697Z,3012
2016-12-31T12:58:45.639Z,3000
2016-12-31T12:59:45.206Z,3020
2016-12-31T13:00:45.542Z,3040
2016-12-31T13:01:45.497Z,3128
2016-12-31T13:02:45.069Z,3220
2016-12-31T13:03:45.022Z,3320
2016-12-31T13:04:44.595Z,3472
2016-12-31T13:05:45.361Z,3508
2016-12-31T13:06:45.287Z,3468
2016-12-31T13:07:45.239Z,3432
2016-12-31T13:08:44.433Z,3380
2016-12-31T13:09:45.154Z,3284
2016-12-31T13:10:45.119Z,3256
2016-12-31T13:11:45.069Z,3252
2016-12-31T13:12:45.037Z,3212
2016-12-31T13:13:44.982Z,3260
2016-12-31T13:14:44.945Z,3288
2016-12-31T13:15:44.900Z,3312
2016-12-31T13:16:44.474Z,3292
2016-12-31T13:17:44.051Z,3240
2016-12-31T13:18:44.394Z,3224
2016-12-31T13:19:44.346Z,3308
2016-12-31T13:20:44.305Z,3348
2016-12-31T13:21:43.876Z,3380
2016-12-31T13:22:44.224Z,3412
2016-12-31T13:23:44.567Z,3408
2016-12-31T13:24:44.527Z,3360
2016-12-31T13:25:43.712Z,3248
2016-12-31T13:26:44.434Z,3104
2016-12-31T13:27:44.395Z,3116
2016-12-31T13:28:44.360Z,3092
2016-12-31T13:29:43.924Z,3000
2016-12-31T13:30:44.277Z,2864
2016-12-31T13:31:43.847Z,2792
2016-12-31T13:32:43.804Z,2796
2016-12-31T13:33:44.142Z,2800
2016-12-31T13:34:43.721Z,2828
2016-12-31T13:35:43.672Z,2812
2016-12-31T13:36:44.034Z,2788
2016-12-31T13:37:43.973Z,2752
2016-12-31T13:38:43.928Z,2696
2016-12-31T13:39:43.883Z,2636
2016-12-31T13:40:43.097Z,2560
2016-12-31T13:41:43.805Z,2512
2016-12-31T13:42:43.761Z,2432
2016-12-31T13:43:43.719Z,2364
2016-12-31T13:44:43.674Z,2332
2016-12-31T13:45:43.644Z,2248
2016-12-31T13:46:43.596Z,2196
2016-12-31T13:47:43.182Z,2184
2016-12-31T13:48:42.350Z,2192
2016-12-31T13:49:43.462Z,2148
2016-12-31T13:50:43.433Z,2100
2016-12-31T13:51:42.993Z,2060
2016-12-31T13:52:43.340Z,2048
2016-12-31T13:53:42.913Z,2028
2016-12-31T13:54:42.866Z,2004
2016-12-31T13:55:42.832Z,1972
2016-12-31T13:56:43.168Z,1940
2016-12-31T13:57:43.128Z,1936
2016-12-31T13:58:43.093Z,1944
2016-12-31T13:59:43.039Z,1928
2016-12-31T14:00:42.228Z,1896
2016-12-31T14:01:42.956Z,1872
2016-12-31T14:02:42.530Z,1868